sensor_id;sensor_type;location;lat;lon;timestamp;P1;durP1;ratioP1;P2;durP2;ratioP2
76377;SDS011;65200;49.500;8.654;2023-07-20T00:01:10;4.25;;;2.75;;
76377;SDS011;65200;49.500;8.654;2023-07-20T00:03:36;3.58;;;2.22;;
76377;SDS011;65200;49.500;8.654;2023-07-20T00:06:03;4.65;;;2.88;;
76377;SDS011;65200;49.500;8.654;2023-07-20T00:08:30;4.55;;;2.92;;
76377;SDS011;65200;49.500;8.654;2023-07-20T00:10:56;3.45;;;2.55;;
76377;SDS011;65200;49.500;8.654;2023-07-20T00:13:24;6.43;;;2.80;;
76377;SDS011;65200;49.500;8.654;2023-07-20T00:15:51;3.42;;;2.72;;
76377;SDS011;65200;49.500;8.654;2023-07-20T00:18:18;4.18;;;2.50;;
76377;SDS011;65200;49.500;8.654;2023-07-20T00:20:46;6.75;;;2.83;;
76377;SDS011;65200;49.500;8.654;2023-07-20T00:23:12;4.78;;;3.22;;
76377;SDS011;65200;49.500;8.654;2023-07-20T00:25:39;5.03;;;2.85;;
76377;SDS011;65200;49.500;8.654;2023-07-20T00:28:05;4.97;;;2.80;;
76377;SDS011;65200;49.500;8.654;2023-07-20T00:30:33;4.80;;;2.63;;
76377;SDS011;65200;49.500;8.654;2023-07-20T00:32:59;5.10;;;2.67;;
76377;SDS011;65200;49.500;8.654;2023-07-20T00:35:26;3.10;;;2.78;;
76377;SDS011;65200;49.500;8.654;2023-07-20T00:37:52;4.35;;;2.83;;
76377;SDS011;65200;49.500;8.654;2023-07-20T00:40:19;6.40;;;3.42;;
76377;SDS011;65200;49.500;8.654;2023-07-20T00:42:45;4.50;;;2.70;;
76377;SDS011;65200;49.500;8.654;2023-07-20T00:45:11;6.90;;;3.85;;
76377;SDS011;65200;49.500;8.654;2023-07-20T00:47:39;3.03;;;2.42;;
76377;SDS011;65200;49.500;8.654;2023-07-20T00:50:07;5.05;;;2.63;;
76377;SDS011;65200;49.500;8.654;2023-07-20T00:52:35;4.65;;;3.00;;
76377;SDS011;65200;49.500;8.654;2023-07-20T00:55:04;3.78;;;3.20;;
76377;SDS011;65200;49.500;8.654;2023-07-20T00:57:31;3.88;;;2.60;;
76377;SDS011;65200;49.500;8.654;2023-07-20T00:59:57;3.38;;;2.67;;
76377;SDS011;65200;49.500;8.654;2023-07-20T01:02:24;6.32;;;3.03;;
76377;SDS011;65200;49.500;8.654;2023-07-20T01:04:52;5.53;;;2.88;;
76377;SDS011;65200;49.500;8.654;2023-07-20T01:07:21;3.92;;;2.90;;
76377;SDS011;65200;49.500;8.654;2023-07-20T01:09:52;3.60;;;2.47;;
76377;SDS011;65200;49.500;8.654;2023-07-20T01:12:27;4.97;;;2.85;;
76377;SDS011;65200;49.500;8.654;2023-07-20T01:15:01;4.97;;;2.65;;
76377;SDS011;65200;49.500;8.654;2023-07-20T01:17:27;4.78;;;3.15;;
76377;SDS011;65200;49.500;8.654;2023-07-20T01:19:55;3.95;;;2.47;;
76377;SDS011;65200;49.500;8.654;2023-07-20T01:22:28;3.65;;;3.15;;
76377;SDS011;65200;49.500;8.654;2023-07-20T01:25:25;5.00;;;2.67;;
76377;SDS011;65200;49.500;8.654;2023-07-20T01:31:11;4.25;;;3.67;;
76377;SDS011;65200;49.500;8.654;2023-07-20T01:33:41;6.18;;;3.10;;
76377;SDS011;65200;49.500;8.654;2023-07-20T01:36:08;5.88;;;3.25;;
76377;SDS011;65200;49.500;8.654;2023-07-20T01:38:36;3.30;;;2.97;;
76377;SDS011;65200;49.500;8.654;2023-07-20T01:41:03;4.18;;;3.20;;
76377;SDS011;65200;49.500;8.654;2023-07-20T01:43:30;6.30;;;3.60;;
76377;SDS011;65200;49.500;8.654;2023-07-20T01:45:56;4.50;;;2.60;;
76377;SDS011;65200;49.500;8.654;2023-07-20T01:48:24;6.47;;;3.15;;
76377;SDS011;65200;49.500;8.654;2023-07-20T01:50:50;3.80;;;2.70;;
76377;SDS011;65200;49.500;8.654;2023-07-20T01:53:17;4.25;;;2.30;;
76377;SDS011;65200;49.500;8.654;2023-07-20T01:55:43;4.18;;;2.90;;
76377;SDS011;65200;49.500;8.654;2023-07-20T01:58:10;4.25;;;2.90;;
76377;SDS011;65200;49.500;8.654;2023-07-20T02:00:36;3.58;;;2.80;;
76377;SDS011;65200;49.500;8.654;2023-07-20T02:03:03;6.88;;;2.38;;
76377;SDS011;65200;49.500;8.654;2023-07-20T02:05:31;4.20;;;3.10;;
76377;SDS011;65200;49.500;8.654;2023-07-20T02:07:57;4.65;;;3.08;;
76377;SDS011;65200;49.500;8.654;2023-07-20T02:10:24;4.75;;;2.92;;
76377;SDS011;65200;49.500;8.654;2023-07-20T02:12:50;5.25;;;2.85;;
76377;SDS011;65200;49.500;8.654;2023-07-20T02:15:17;4.30;;;3.55;;
76377;SDS011;65200;49.500;8.654;2023-07-20T02:17:44;6.57;;;3.50;;
76377;SDS011;65200;49.500;8.654;2023-07-20T02:20:11;5.18;;;2.40;;
76377;SDS011;65200;49.500;8.654;2023-07-20T02:22:39;3.67;;;3.05;;
76377;SDS011;65200;49.500;8.654;2023-07-20T02:25:06;4.25;;;3.05;;
76377;SDS011;65200;49.500;8.654;2023-07-20T02:30:00;3.97;;;3.17;;
76377;SDS011;65200;49.500;8.654;2023-07-20T02:32:27;4.65;;;2.47;;
76377;SDS011;65200;49.500;8.654;2023-07-20T02:34:54;5.25;;;3.40;;
76377;SDS011;65200;49.500;8.654;2023-07-20T02:37:20;4.20;;;3.40;;
76377;SDS011;65200;49.500;8.654;2023-07-20T02:39:48;6.22;;;3.30;;
76377;SDS011;65200;49.500;8.654;2023-07-20T02:42:14;4.13;;;3.00;;
76377;SDS011;65200;49.500;8.654;2023-07-20T02:44:41;4.75;;;3.22;;
76377;SDS011;65200;49.500;8.654;2023-07-20T02:47:07;7.57;;;3.38;;
76377;SDS011;65200;49.500;8.654;2023-07-20T02:49:34;5.45;;;3.45;;
76377;SDS011;65200;49.500;8.654;2023-07-20T02:52:01;4.65;;;3.30;;
76377;SDS011;65200;49.500;8.654;2023-07-20T02:54:28;4.88;;;3.13;;
76377;SDS011;65200;49.500;8.654;2023-07-20T02:56:56;6.15;;;2.58;;
76377;SDS011;65200;49.500;8.654;2023-07-20T02:59:23;5.85;;;3.22;;
76377;SDS011;65200;49.500;8.654;2023-07-20T03:01:49;6.03;;;3.58;;
76377;SDS011;65200;49.500;8.654;2023-07-20T03:04:16;4.97;;;3.30;;
76377;SDS011;65200;49.500;8.654;2023-07-20T03:06:42;7.82;;;3.70;;
76377;SDS011;65200;49.500;8.654;2023-07-20T03:09:09;4.53;;;3.05;;
76377;SDS011;65200;49.500;8.654;2023-07-20T03:11:35;3.92;;;3.30;;
76377;SDS011;65200;49.500;8.654;2023-07-20T03:14:03;3.95;;;3.08;;
76377;SDS011;65200;49.500;8.654;2023-07-20T03:16:30;4.38;;;3.50;;
76377;SDS011;65200;49.500;8.654;2023-07-20T03:18:57;4.47;;;3.10;;
76377;SDS011;65200;49.500;8.654;2023-07-20T03:21:24;5.40;;;3.35;;
76377;SDS011;65200;49.500;8.654;2023-07-20T03:23:50;4.25;;;3.22;;
76377;SDS011;65200;49.500;8.654;2023-07-20T03:26:17;4.13;;;3.10;;
76377;SDS011;65200;49.500;8.654;2023-07-20T03:28:43;4.20;;;3.33;;
76377;SDS011;65200;49.500;8.654;2023-07-20T03:31:11;7.53;;;3.75;;
76377;SDS011;65200;49.500;8.654;2023-07-20T03:33:37;4.80;;;3.90;;
76377;SDS011;65200;49.500;8.654;2023-07-20T03:36:04;4.13;;;2.97;;
76377;SDS011;65200;49.500;8.654;2023-07-20T03:38:31;7.57;;;3.60;;
76377;SDS011;65200;49.500;8.654;2023-07-20T03:40:58;4.03;;;3.05;;
76377;SDS011;65200;49.500;8.654;2023-07-20T03:43:26;4.45;;;3.33;;
76377;SDS011;65200;49.500;8.654;2023-07-20T03:45:54;4.20;;;2.55;;
76377;SDS011;65200;49.500;8.654;2023-07-20T03:48:23;3.97;;;2.58;;
76377;SDS011;65200;49.500;8.654;2023-07-20T03:50:51;5.13;;;3.28;;
76377;SDS011;65200;49.500;8.654;2023-07-20T03:53:18;4.43;;;2.88;;
76377;SDS011;65200;49.500;8.654;2023-07-20T03:55:45;6.60;;;3.35;;
76377;SDS011;65200;49.500;8.654;2023-07-20T03:58:12;4.68;;;3.38;;
76377;SDS011;65200;49.500;8.654;2023-07-20T04:00:39;4.78;;;2.80;;
76377;SDS011;65200;49.500;8.654;2023-07-20T04:03:06;4.07;;;3.17;;
76377;SDS011;65200;49.500;8.654;2023-07-20T04:05:33;6.25;;;3.50;;
76377;SDS011;65200;49.500;8.654;2023-07-20T04:08:00;6.40;;;3.08;;
76377;SDS011;65200;49.500;8.654;2023-07-20T04:10:26;5.70;;;3.50;;
76377;SDS011;65200;49.500;8.654;2023-07-20T04:12:53;5.45;;;3.63;;
76377;SDS011;65200;49.500;8.654;2023-07-20T04:15:19;4.95;;;3.50;;
76377;SDS011;65200;49.500;8.654;2023-07-20T04:17:45;7.50;;;3.42;;
76377;SDS011;65200;49.500;8.654;2023-07-20T04:20:12;3.88;;;2.67;;
76377;SDS011;65200;49.500;8.654;2023-07-20T04:22:40;4.20;;;3.55;;
76377;SDS011;65200;49.500;8.654;2023-07-20T04:27:33;5.60;;;3.88;;
76377;SDS011;65200;49.500;8.654;2023-07-20T04:29:59;5.00;;;3.17;;
76377;SDS011;65200;49.500;8.654;2023-07-20T04:32:26;4.18;;;3.10;;
76377;SDS011;65200;49.500;8.654;2023-07-20T04:34:52;7.30;;;3.30;;
76377;SDS011;65200;49.500;8.654;2023-07-20T04:37:19;4.70;;;3.42;;
76377;SDS011;65200;49.500;8.654;2023-07-20T04:39:46;5.88;;;3.25;;
76377;SDS011;65200;49.500;8.654;2023-07-20T04:42:13;5.18;;;3.22;;
76377;SDS011;65200;49.500;8.654;2023-07-20T04:44:40;3.97;;;3.10;;
76377;SDS011;65200;49.500;8.654;2023-07-20T04:47:07;4.15;;;3.20;;
76377;SDS011;65200;49.500;8.654;2023-07-20T04:49:34;5.00;;;3.47;;
76377;SDS011;65200;49.500;8.654;2023-07-20T04:52:01;7.47;;;3.20;;
76377;SDS011;65200;49.500;8.654;2023-07-20T04:54:28;7.03;;;3.72;;
76377;SDS011;65200;49.500;8.654;2023-07-20T04:56:56;5.18;;;2.83;;
76377;SDS011;65200;49.500;8.654;2023-07-20T04:59:22;4.05;;;3.15;;
76377;SDS011;65200;49.500;8.654;2023-07-20T05:01:49;4.90;;;2.97;;
76377;SDS011;65200;49.500;8.654;2023-07-20T05:04:15;5.28;;;3.28;;
76377;SDS011;65200;49.500;8.654;2023-07-20T05:06:42;5.97;;;3.33;;
76377;SDS011;65200;49.500;8.654;2023-07-20T05:09:08;4.82;;;3.03;;
76377;SDS011;65200;49.500;8.654;2023-07-20T05:11:35;4.53;;;3.55;;
76377;SDS011;65200;49.500;8.654;2023-07-20T05:14:03;4.20;;;3.30;;
76377;SDS011;65200;49.500;8.654;2023-07-20T05:16:29;3.60;;;2.75;;
76377;SDS011;65200;49.500;8.654;2023-07-20T05:18:55;5.35;;;3.60;;
76377;SDS011;65200;49.500;8.654;2023-07-20T05:21:23;3.60;;;2.55;;
76377;SDS011;65200;49.500;8.654;2023-07-20T05:23:49;6.07;;;3.40;;
76377;SDS011;65200;49.500;8.654;2023-07-20T05:26:16;7.10;;;3.05;;
76377;SDS011;65200;49.500;8.654;2023-07-20T05:28:42;5.43;;;3.42;;
76377;SDS011;65200;49.500;8.654;2023-07-20T05:31:10;4.55;;;3.22;;
76377;SDS011;65200;49.500;8.654;2023-07-20T05:33:36;6.00;;;3.03;;
76377;SDS011;65200;49.500;8.654;2023-07-20T05:36:03;4.85;;;3.10;;
76377;SDS011;65200;49.500;8.654;2023-07-20T05:38:29;5.05;;;2.65;;
76377;SDS011;65200;49.500;8.654;2023-07-20T05:40:59;4.85;;;3.22;;
76377;SDS011;65200;49.500;8.654;2023-07-20T05:43:27;8.45;;;3.22;;
76377;SDS011;65200;49.500;8.654;2023-07-20T05:45:53;4.45;;;3.30;;
76377;SDS011;65200;49.500;8.654;2023-07-20T05:48:21;6.75;;;3.40;;
76377;SDS011;65200;49.500;8.654;2023-07-20T05:50:47;4.72;;;3.20;;
76377;SDS011;65200;49.500;8.654;2023-07-20T05:53:14;4.93;;;4.47;;
76377;SDS011;65200;49.500;8.654;2023-07-20T05:55:40;5.50;;;3.15;;
76377;SDS011;65200;49.500;8.654;2023-07-20T05:58:07;5.53;;;3.28;;
76377;SDS011;65200;49.500;8.654;2023-07-20T06:00:33;4.88;;;3.05;;
76377;SDS011;65200;49.500;8.654;2023-07-20T06:03:00;5.15;;;3.63;;
76377;SDS011;65200;49.500;8.654;2023-07-20T06:05:29;4.78;;;3.50;;
76377;SDS011;65200;49.500;8.654;2023-07-20T06:07:55;6.00;;;3.40;;
76377;SDS011;65200;49.500;8.654;2023-07-20T06:10:22;4.65;;;3.20;;
76377;SDS011;65200;49.500;8.654;2023-07-20T06:12:49;5.15;;;3.20;;
76377;SDS011;65200;49.500;8.654;2023-07-20T06:15:24;5.40;;;3.97;;
76377;SDS011;65200;49.500;8.654;2023-07-20T06:17:53;7.60;;;4.13;;
76377;SDS011;65200;49.500;8.654;2023-07-20T06:20:21;4.18;;;2.50;;
76377;SDS011;65200;49.500;8.654;2023-07-20T06:22:49;5.38;;;3.22;;
76377;SDS011;65200;49.500;8.654;2023-07-20T06:25:16;4.70;;;3.35;;
76377;SDS011;65200;49.500;8.654;2023-07-20T06:27:42;8.48;;;4.22;;
76377;SDS011;65200;49.500;8.654;2023-07-20T06:30:09;9.35;;;3.50;;
76377;SDS011;65200;49.500;8.654;2023-07-20T06:32:38;4.65;;;3.40;;
76377;SDS011;65200;49.500;8.654;2023-07-20T06:35:05;5.18;;;3.42;;
76377;SDS011;65200;49.500;8.654;2023-07-20T06:37:31;5.03;;;3.38;;
76377;SDS011;65200;49.500;8.654;2023-07-20T06:40:00;5.50;;;3.47;;
76377;SDS011;65200;49.500;8.654;2023-07-20T06:42:27;4.85;;;3.47;;
76377;SDS011;65200;49.500;8.654;2023-07-20T06:44:53;6.63;;;3.47;;
76377;SDS011;65200;49.500;8.654;2023-07-20T06:47:19;6.68;;;3.17;;
76377;SDS011;65200;49.500;8.654;2023-07-20T06:49:46;4.80;;;3.45;;
76377;SDS011;65200;49.500;8.654;2023-07-20T06:52:12;5.07;;;3.88;;
76377;SDS011;65200;49.500;8.654;2023-07-20T06:54:39;8.05;;;3.55;;
76377;SDS011;65200;49.500;8.654;2023-07-20T06:57:07;5.97;;;3.63;;
76377;SDS011;65200;49.500;8.654;2023-07-20T06:59:33;5.93;;;3.53;;
76377;SDS011;65200;49.500;8.654;2023-07-20T07:02:00;5.93;;;3.35;;
76377;SDS011;65200;49.500;8.654;2023-07-20T07:04:26;8.73;;;3.63;;
76377;SDS011;65200;49.500;8.654;2023-07-20T07:06:53;7.47;;;3.50;;
76377;SDS011;65200;49.500;8.654;2023-07-20T07:09:20;7.15;;;3.45;;
76377;SDS011;65200;49.500;8.654;2023-07-20T07:11:46;7.70;;;4.05;;
76377;SDS011;65200;49.500;8.654;2023-07-20T07:14:14;4.40;;;3.35;;
76377;SDS011;65200;49.500;8.654;2023-07-20T07:16:41;6.63;;;3.80;;
76377;SDS011;65200;49.500;8.654;2023-07-20T07:19:07;4.30;;;3.47;;
76377;SDS011;65200;49.500;8.654;2023-07-20T07:21:33;5.97;;;2.92;;
76377;SDS011;65200;49.500;8.654;2023-07-20T07:24:00;4.38;;;3.53;;
76377;SDS011;65200;49.500;8.654;2023-07-20T07:26:26;7.22;;;3.72;;
76377;SDS011;65200;49.500;8.654;2023-07-20T07:28:53;6.97;;;3.58;;
76377;SDS011;65200;49.500;8.654;2023-07-20T07:31:20;5.75;;;3.30;;
76377;SDS011;65200;49.500;8.654;2023-07-20T07:33:48;4.57;;;2.47;;
76377;SDS011;65200;49.500;8.654;2023-07-20T07:36:14;4.22;;;2.88;;
76377;SDS011;65200;49.500;8.654;2023-07-20T07:38:41;6.22;;;2.72;;
76377;SDS011;65200;49.500;8.654;2023-07-20T07:41:07;5.60;;;3.35;;
76377;SDS011;65200;49.500;8.654;2023-07-20T07:43:34;7.72;;;3.38;;
76377;SDS011;65200;49.500;8.654;2023-07-20T07:46:01;5.20;;;3.13;;
76377;SDS011;65200;49.500;8.654;2023-07-20T07:48:30;4.85;;;3.00;;
76377;SDS011;65200;49.500;8.654;2023-07-20T07:50:56;8.60;;;3.13;;
76377;SDS011;65200;49.500;8.654;2023-07-20T07:53:23;3.75;;;2.58;;
76377;SDS011;65200;49.500;8.654;2023-07-20T07:55:51;3.70;;;2.50;;
76377;SDS011;65200;49.500;8.654;2023-07-20T07:58:17;3.85;;;2.42;;
76377;SDS011;65200;49.500;8.654;2023-07-20T08:00:44;4.95;;;2.00;;
76377;SDS011;65200;49.500;8.654;2023-07-20T08:03:13;4.22;;;2.33;;
76377;SDS011;65200;49.500;8.654;2023-07-20T08:05:41;3.42;;;2.13;;
76377;SDS011;65200;49.500;8.654;2023-07-20T08:08:07;3.58;;;1.83;;
76377;SDS011;65200;49.500;8.654;2023-07-20T08:10:34;3.20;;;2.60;;
76377;SDS011;65200;49.500;8.654;2023-07-20T08:13:01;3.75;;;2.65;;
76377;SDS011;65200;49.500;8.654;2023-07-20T08:15:27;3.08;;;2.30;;
76377;SDS011;65200;49.500;8.654;2023-07-20T08:17:54;3.78;;;2.17;;
76377;SDS011;65200;49.500;8.654;2023-07-20T08:20:20;3.85;;;2.80;;
76377;SDS011;65200;49.500;8.654;2023-07-20T08:22:53;4.00;;;2.95;;
76377;SDS011;65200;49.500;8.654;2023-07-20T08:25:21;4.35;;;2.95;;
76377;SDS011;65200;49.500;8.654;2023-07-20T08:27:47;4.63;;;3.00;;
76377;SDS011;65200;49.500;8.654;2023-07-20T08:30:14;6.05;;;2.92;;
76377;SDS011;65200;49.500;8.654;2023-07-20T08:32:40;3.30;;;2.42;;
76377;SDS011;65200;49.500;8.654;2023-07-20T08:35:07;3.65;;;2.42;;
76377;SDS011;65200;49.500;8.654;2023-07-20T08:37:34;2.92;;;2.47;;
76377;SDS011;65200;49.500;8.654;2023-07-20T08:40:02;4.22;;;2.60;;
76377;SDS011;65200;49.500;8.654;2023-07-20T08:42:33;5.70;;;2.80;;
76377;SDS011;65200;49.500;8.654;2023-07-20T08:45:00;6.32;;;2.63;;
76377;SDS011;65200;49.500;8.654;2023-07-20T08:47:32;4.07;;;2.33;;
76377;SDS011;65200;49.500;8.654;2023-07-20T08:49:59;4.63;;;2.50;;
76377;SDS011;65200;49.500;8.654;2023-07-20T08:52:31;4.60;;;2.92;;
76377;SDS011;65200;49.500;8.654;2023-07-20T08:55:00;3.75;;;2.38;;
76377;SDS011;65200;49.500;8.654;2023-07-20T08:57:30;5.45;;;3.17;;
76377;SDS011;65200;49.500;8.654;2023-07-20T08:59:59;4.53;;;3.13;;
76377;SDS011;65200;49.500;8.654;2023-07-20T09:02:29;8.50;;;2.88;;
76377;SDS011;65200;49.500;8.654;2023-07-20T09:05:01;3.45;;;2.45;;
76377;SDS011;65200;49.500;8.654;2023-07-20T09:07:27;4.07;;;2.63;;
76377;SDS011;65200;49.500;8.654;2023-07-20T09:09:56;8.00;;;2.97;;
76377;SDS011;65200;49.500;8.654;2023-07-20T09:12:23;4.47;;;2.83;;
76377;SDS011;65200;49.500;8.654;2023-07-20T09:14:52;3.75;;;2.88;;
76377;SDS011;65200;49.500;8.654;2023-07-20T09:17:18;4.05;;;2.45;;
76377;SDS011;65200;49.500;8.654;2023-07-20T09:19:48;4.72;;;2.45;;
76377;SDS011;65200;49.500;8.654;2023-07-20T09:22:14;3.67;;;2.85;;
76377;SDS011;65200;49.500;8.654;2023-07-20T09:24:42;5.93;;;2.63;;
76377;SDS011;65200;49.500;8.654;2023-07-20T09:27:09;4.30;;;2.67;;
76377;SDS011;65200;49.500;8.654;2023-07-20T09:29:42;4.85;;;2.60;;
76377;SDS011;65200;49.500;8.654;2023-07-20T09:32:17;7.43;;;2.88;;
76377;SDS011;65200;49.500;8.654;2023-07-20T09:34:46;2.50;;;1.92;;
76377;SDS011;65200;49.500;8.654;2023-07-20T09:37:13;3.10;;;2.10;;
76377;SDS011;65200;49.500;8.654;2023-07-20T09:39:42;4.95;;;2.40;;
76377;SDS011;65200;49.500;8.654;2023-07-20T09:42:10;3.35;;;2.25;;
76377;SDS011;65200;49.500;8.654;2023-07-20T09:44:37;4.13;;;2.53;;
76377;SDS011;65200;49.500;8.654;2023-07-20T09:47:04;5.32;;;2.67;;
76377;SDS011;65200;49.500;8.654;2023-07-20T09:49:32;13.70;;;3.13;;
76377;SDS011;65200;49.500;8.654;2023-07-20T09:52:04;4.25;;;2.47;;
76377;SDS011;65200;49.500;8.654;2023-07-20T09:54:32;5.05;;;2.55;;
76377;SDS011;65200;49.500;8.654;2023-07-20T09:59:26;3.05;;;2.72;;
76377;SDS011;65200;49.500;8.654;2023-07-20T10:01:52;5.30;;;2.63;;
76377;SDS011;65200;49.500;8.654;2023-07-20T10:04:24;3.60;;;3.15;;
76377;SDS011;65200;49.500;8.654;2023-07-20T10:06:54;3.13;;;2.65;;
76377;SDS011;65200;49.500;8.654;2023-07-20T10:09:21;4.43;;;2.50;;
76377;SDS011;65200;49.500;8.654;2023-07-20T10:11:50;6.05;;;2.38;;
76377;SDS011;65200;49.500;8.654;2023-07-20T10:14:19;5.25;;;2.28;;
76377;SDS011;65200;49.500;8.654;2023-07-20T10:16:50;4.35;;;2.50;;
76377;SDS011;65200;49.500;8.654;2023-07-20T10:19:21;3.58;;;2.33;;
76377;SDS011;65200;49.500;8.654;2023-07-20T10:21:51;3.00;;;2.50;;
76377;SDS011;65200;49.500;8.654;2023-07-20T10:24:26;3.95;;;2.60;;
76377;SDS011;65200;49.500;8.654;2023-07-20T10:26:54;4.10;;;2.53;;
76377;SDS011;65200;49.500;8.654;2023-07-20T10:29:21;4.35;;;2.50;;
76377;SDS011;65200;49.500;8.654;2023-07-20T10:31:48;5.10;;;2.65;;
76377;SDS011;65200;49.500;8.654;2023-07-20T10:34:15;4.35;;;2.58;;
76377;SDS011;65200;49.500;8.654;2023-07-20T10:36:44;4.20;;;2.22;;
76377;SDS011;65200;49.500;8.654;2023-07-20T10:39:23;7.70;;;2.50;;
76377;SDS011;65200;49.500;8.654;2023-07-20T10:41:59;3.97;;;3.03;;
76377;SDS011;65200;49.500;8.654;2023-07-20T10:44:27;4.22;;;2.13;;
76377;SDS011;65200;49.500;8.654;2023-07-20T10:46:58;6.30;;;4.50;;
76377;SDS011;65200;49.500;8.654;2023-07-20T10:49:25;4.75;;;2.83;;
76377;SDS011;65200;49.500;8.654;2023-07-20T10:51:55;5.82;;;3.72;;
76377;SDS011;65200;49.500;8.654;2023-07-20T10:54:34;8.10;;;2.17;;
76377;SDS011;65200;49.500;8.654;2023-07-20T10:57:21;4.13;;;2.28;;
76377;SDS011;65200;49.500;8.654;2023-07-20T10:59:49;4.70;;;2.45;;
76377;SDS011;65200;49.500;8.654;2023-07-20T11:02:17;3.72;;;2.63;;
76377;SDS011;65200;49.500;8.654;2023-07-20T11:04:45;6.22;;;2.65;;
76377;SDS011;65200;49.500;8.654;2023-07-20T11:07:14;3.03;;;2.05;;
76377;SDS011;65200;49.500;8.654;2023-07-20T11:09:43;5.75;;;2.47;;
76377;SDS011;65200;49.500;8.654;2023-07-20T11:12:10;3.40;;;2.30;;
76377;SDS011;65200;49.500;8.654;2023-07-20T11:14:40;3.13;;;2.33;;
76377;SDS011;65200;49.500;8.654;2023-07-20T11:17:11;2.78;;;1.90;;
76377;SDS011;65200;49.500;8.654;2023-07-20T11:19:38;4.70;;;2.40;;
76377;SDS011;65200;49.500;8.654;2023-07-20T11:22:05;3.58;;;2.45;;
76377;SDS011;65200;49.500;8.654;2023-07-20T11:24:34;3.92;;;2.67;;
76377;SDS011;65200;49.500;8.654;2023-07-20T11:27:02;6.53;;;1.80;;
76377;SDS011;65200;49.500;8.654;2023-07-20T11:29:29;4.95;;;2.20;;
76377;SDS011;65200;49.500;8.654;2023-07-20T11:31:56;5.32;;;2.60;;
76377;SDS011;65200;49.500;8.654;2023-07-20T11:34:23;2.95;;;2.47;;
76377;SDS011;65200;49.500;8.654;2023-07-20T11:36:52;3.97;;;2.47;;
76377;SDS011;65200;49.500;8.654;2023-07-20T11:39:20;3.50;;;2.10;;
76377;SDS011;65200;49.500;8.654;2023-07-20T11:41:50;3.08;;;2.15;;
76377;SDS011;65200;49.500;8.654;2023-07-20T11:44:19;5.68;;;3.85;;
76377;SDS011;65200;49.500;8.654;2023-07-20T11:46:58;3.90;;;2.50;;
76377;SDS011;65200;49.500;8.654;2023-07-20T11:49:26;3.63;;;2.50;;
76377;SDS011;65200;49.500;8.654;2023-07-20T11:51:53;3.03;;;2.50;;
76377;SDS011;65200;49.500;8.654;2023-07-20T11:54:19;3.40;;;2.10;;
76377;SDS011;65200;49.500;8.654;2023-07-20T11:56:46;3.30;;;2.20;;
76377;SDS011;65200;49.500;8.654;2023-07-20T11:59:12;5.13;;;2.40;;
76377;SDS011;65200;49.500;8.654;2023-07-20T12:01:40;4.50;;;2.15;;
76377;SDS011;65200;49.500;8.654;2023-07-20T12:04:07;3.28;;;2.28;;
76377;SDS011;65200;49.500;8.654;2023-07-20T12:06:34;4.03;;;2.00;;
76377;SDS011;65200;49.500;8.654;2023-07-20T12:09:00;2.58;;;2.10;;
76377;SDS011;65200;49.500;8.654;2023-07-20T12:11:30;3.03;;;1.60;;
76377;SDS011;65200;49.500;8.654;2023-07-20T12:13:57;4.55;;;2.40;;
76377;SDS011;65200;49.500;8.654;2023-07-20T12:16:26;3.15;;;2.17;;
76377;SDS011;65200;49.500;8.654;2023-07-20T12:19:00;2.80;;;2.20;;
76377;SDS011;65200;49.500;8.654;2023-07-20T12:21:27;5.32;;;2.17;;
76377;SDS011;65200;49.500;8.654;2023-07-20T12:23:55;3.28;;;2.10;;
76377;SDS011;65200;49.500;8.654;2023-07-20T12:26:22;4.15;;;2.00;;
76377;SDS011;65200;49.500;8.654;2023-07-20T12:28:49;3.55;;;2.42;;
76377;SDS011;65200;49.500;8.654;2023-07-20T12:31:15;2.92;;;2.00;;
76377;SDS011;65200;49.500;8.654;2023-07-20T12:33:42;3.45;;;2.17;;
76377;SDS011;65200;49.500;8.654;2023-07-20T12:36:10;3.30;;;2.30;;
76377;SDS011;65200;49.500;8.654;2023-07-20T12:38:37;3.45;;;2.30;;
76377;SDS011;65200;49.500;8.654;2023-07-20T12:41:03;3.45;;;2.53;;
76377;SDS011;65200;49.500;8.654;2023-07-20T12:43:30;3.15;;;2.28;;
76377;SDS011;65200;49.500;8.654;2023-07-20T12:45:57;2.88;;;2.30;;
76377;SDS011;65200;49.500;8.654;2023-07-20T12:48:24;3.00;;;2.03;;
76377;SDS011;65200;49.500;8.654;2023-07-20T12:50:51;2.80;;;1.80;;
76377;SDS011;65200;49.500;8.654;2023-07-20T12:53:19;3.45;;;1.90;;
76377;SDS011;65200;49.500;8.654;2023-07-20T12:55:45;6.35;;;2.17;;
76377;SDS011;65200;49.500;8.654;2023-07-20T12:58:12;3.53;;;2.15;;
76377;SDS011;65200;49.500;8.654;2023-07-20T13:00:39;2.63;;;1.90;;
76377;SDS011;65200;49.500;8.654;2023-07-20T13:03:06;3.50;;;1.65;;
76377;SDS011;65200;49.500;8.654;2023-07-20T13:05:33;4.80;;;2.70;;
76377;SDS011;65200;49.500;8.654;2023-07-20T13:08:00;2.75;;;1.83;;
76377;SDS011;65200;49.500;8.654;2023-07-20T13:10:28;2.80;;;2.00;;
76377;SDS011;65200;49.500;8.654;2023-07-20T13:12:55;3.15;;;2.15;;
76377;SDS011;65200;49.500;8.654;2023-07-20T13:15:24;3.10;;;2.53;;
76377;SDS011;65200;49.500;8.654;2023-07-20T13:17:55;4.18;;;2.30;;
76377;SDS011;65200;49.500;8.654;2023-07-20T13:20:22;4.32;;;2.70;;
76377;SDS011;65200;49.500;8.654;2023-07-20T13:22:48;2.78;;;2.08;;
76377;SDS011;65200;49.500;8.654;2023-07-20T13:30:10;3.45;;;2.08;;
76377;SDS011;65200;49.500;8.654;2023-07-20T13:32:41;4.55;;;2.33;;
76377;SDS011;65200;49.500;8.654;2023-07-20T13:35:08;2.75;;;2.00;;
76377;SDS011;65200;49.500;8.654;2023-07-20T13:37:34;3.65;;;2.30;;
76377;SDS011;65200;49.500;8.654;2023-07-20T13:40:01;3.38;;;2.35;;
76377;SDS011;65200;49.500;8.654;2023-07-20T13:42:28;8.00;;;2.03;;
76377;SDS011;65200;49.500;8.654;2023-07-20T13:44:56;3.17;;;2.13;;
76377;SDS011;65200;49.500;8.654;2023-07-20T13:47:22;4.25;;;2.22;;
76377;SDS011;65200;49.500;8.654;2023-07-20T13:49:49;4.15;;;2.42;;
76377;SDS011;65200;49.500;8.654;2023-07-20T13:52:15;4.10;;;2.17;;
76377;SDS011;65200;49.500;8.654;2023-07-20T13:54:42;4.15;;;1.90;;
76377;SDS011;65200;49.500;8.654;2023-07-20T13:57:09;3.20;;;2.30;;
76377;SDS011;65200;49.500;8.654;2023-07-20T13:59:35;6.13;;;2.28;;
76377;SDS011;65200;49.500;8.654;2023-07-20T14:02:03;3.35;;;2.17;;
76377;SDS011;65200;49.500;8.654;2023-07-20T14:04:30;4.63;;;2.30;;
76377;SDS011;65200;49.500;8.654;2023-07-20T14:06:56;6.20;;;2.20;;
76377;SDS011;65200;49.500;8.654;2023-07-20T14:09:23;3.97;;;2.42;;
76377;SDS011;65200;49.500;8.654;2023-07-20T14:11:49;3.30;;;2.30;;
76377;SDS011;65200;49.500;8.654;2023-07-20T14:14:16;3.85;;;2.10;;
76377;SDS011;65200;49.500;8.654;2023-07-20T14:16:42;3.47;;;2.30;;
76377;SDS011;65200;49.500;8.654;2023-07-20T14:19:10;3.90;;;2.25;;
76377;SDS011;65200;49.500;8.654;2023-07-20T14:21:37;3.03;;;1.92;;
76377;SDS011;65200;49.500;8.654;2023-07-20T14:24:04;5.38;;;2.40;;
76377;SDS011;65200;49.500;8.654;2023-07-20T14:26:31;2.50;;;1.80;;
76377;SDS011;65200;49.500;8.654;2023-07-20T14:28:57;5.45;;;2.08;;
76377;SDS011;65200;49.500;8.654;2023-07-20T14:31:24;2.88;;;2.30;;
76377;SDS011;65200;49.500;8.654;2023-07-20T14:33:51;3.15;;;2.22;;
76377;SDS011;65200;49.500;8.654;2023-07-20T14:38:45;3.22;;;2.33;;
76377;SDS011;65200;49.500;8.654;2023-07-20T14:41:12;3.13;;;1.80;;
76377;SDS011;65200;49.500;8.654;2023-07-20T14:43:38;2.80;;;2.20;;
76377;SDS011;65200;49.500;8.654;2023-07-20T14:46:05;4.82;;;2.05;;
76377;SDS011;65200;49.500;8.654;2023-07-20T14:48:31;3.60;;;2.30;;
76377;SDS011;65200;49.500;8.654;2023-07-20T14:50:58;4.03;;;2.35;;
76377;SDS011;65200;49.500;8.654;2023-07-20T14:53:25;3.10;;;1.90;;
76377;SDS011;65200;49.500;8.654;2023-07-20T14:55:57;3.60;;;1.90;;
76377;SDS011;65200;49.500;8.654;2023-07-20T14:58:24;4.80;;;2.30;;
76377;SDS011;65200;49.500;8.654;2023-07-20T15:00:51;2.50;;;2.03;;
76377;SDS011;65200;49.500;8.654;2023-07-20T15:03:17;2.63;;;2.17;;
76377;SDS011;65200;49.500;8.654;2023-07-20T15:05:44;2.85;;;2.10;;
76377;SDS011;65200;49.500;8.654;2023-07-20T15:08:10;2.88;;;2.13;;